Time;durP1;ratioP1;P1;durP2;ratioP2;P2;SDS_P1;SDS_P2;PMS_P1;PMS_P2;Temp;Humidity;BMP_temperature;BMP_pressure;BME280_temperature;BME280_humidity;BME280_pressure;Samples;Min_cycle;Max_cycle;Signal;HPM_P1;HPM_P2
2021/07/24 00:02:21;;;;;;;;;;;24.60;57.10;;;;;;5129385;27;19970;-54
2021/07/24 00:04:48;;;;;;;;;;;24.60;57.10;;;;;;5122033;27;20442;-51
2021/07/24 00:07:15;;;;;;;;;;;24.60;57.10;;;;;;5135235;27;19923;-48
2021/07/24 00:09:43;;;;;;;;;;;24.60;57.20;;;;;;5134164;27;19924;-51
2021/07/24 00:12:13;;;;;;;;;;;24.60;57.20;;;;;;5135259;27;20328;-51
2021/07/24 00:14:40;;;;;;;;;;;24.60;57.20;;;;;;5116908;27;20260;-54
2021/07/24 00:17:07;;;;;;;;;;;24.60;57.20;;;;;;5114934;27;19931;-52
2021/07/24 00:19:34;;;;;;;;;;;24.60;57.20;;;;;;5115957;27;20287;-51
2021/07/24 00:22:01;;;;;;;;;;;24.60;57.80;;;;;;5135014;27;20414;-53
2021/07/24 00:24:28;;;;;;;;;;;24.60;57.30;;;;;;5132565;27;20332;-53
2021/07/24 00:26:55;;;;;;;;;;;24.50;57.30;;;;;;5134060;27;20014;-52
2021/07/24 00:29:22;;;;;;;;;;;24.50;57.30;;;;;;5134569;27;19929;-51
2021/07/24 00:31:49;;;;;;;;;;;24.50;57.40;;;;;;5133433;27;19930;-53
2021/07/24 00:34:17;;;;;;;;;;;24.50;57.40;;;;;;5133430;27;19969;-50
2021/07/24 00:36:45;;;;;;;;;;;24.50;57.40;;;;;;5119927;27;20430;-54
2021/07/24 00:39:12;;;;;;;;;;;24.50;57.50;;;;;;5131371;27;19923;-52
2021/07/24 00:41:42;;;;;;;;;;;24.50;57.50;;;;;;5134294;27;19924;-54
2021/07/24 00:44:09;;;;;;;;;;;24.50;57.50;;;;;;5120663;27;19969;-54
2021/07/24 00:46:36;;;;;;;;;;;24.50;58.10;;;;;;5128976;27;19924;-53
2021/07/24 00:49:03;;;;;;;;;;;24.50;57.50;;;;;;5134187;27;19928;-52
2021/07/24 00:51:33;;;;;;;;;;;24.50;57.50;;;;;;5131272;27;19972;-54
2021/07/24 00:54:02;;;;;;;;;;;24.50;57.50;;;;;;5132843;27;20010;-54
2021/07/24 00:56:29;;;;;;;;;;;24.50;57.60;;;;;;5134183;27;19969;-56
2021/07/24 00:58:56;;;;;;;;;;;24.40;57.50;;;;;;5134308;27;19924;-55
2021/07/24 01:01:25;;;;;;;;;;;24.50;57.50;;;;;;5133130;27;19972;-53
2021/07/24 01:03:52;;;;;;;;;;;24.50;57.60;;;;;;5133067;27;19923;-55
2021/07/24 01:06:19;;;;;;;;;;;24.40;57.50;;;;;;5131653;27;19924;-55
2021/07/24 01:08:47;;;;;;;;;;;24.40;57.50;;;;;;5132899;27;19967;-54
2021/07/24 01:11:15;;;;;;;;;;;24.40;57.50;;;;;;5133867;27;19967;-55
2021/07/24 01:13:42;;;;;;;;;;;24.40;57.50;;;;;;5133817;27;19958;-52
2021/07/24 01:16:09;;;;;;;;;;;24.40;57.50;;;;;;5134088;27;20311;-53
2021/07/24 01:18:37;;;;;;;;;;;24.40;57.60;;;;;;5133030;27;19972;-51
2021/07/24 01:21:08;;;;;;;;;;;24.40;57.60;;;;;;5115799;27;20387;-54
2021/07/24 01:23:36;;;;;;;;;;;24.40;57.60;;;;;;5133206;27;20410;-54
2021/07/24 01:26:04;;;;;;;;;;;24.40;57.60;;;;;;5132732;27;19923;-53
2021/07/24 01:28:35;;;;;;;;;;;24.40;57.70;;;;;;5113888;28;20286;-52
2021/07/24 01:31:06;;;;;;;;;;;24.40;57.70;;;;;;5115804;28;19931;-54
2021/07/24 01:33:34;;;;;;;;;;;24.40;57.70;;;;;;5114388;27;19931;-54
2021/07/24 01:36:02;;;;;;;;;;;24.40;57.70;;;;;;5124726;27;19923;-54
2021/07/24 01:38:30;;;;;;;;;;;24.30;57.60;;;;;;5132497;27;20424;-54
2021/07/24 01:40:57;;;;;;;;;;;24.30;57.60;;;;;;5118732;28;19924;-54
2021/07/24 01:43:24;;;;;;;;;;;24.30;57.70;;;;;;5129461;28;20379;-54
2021/07/24 01:45:51;;;;;;;;;;;24.30;57.70;;;;;;5133773;28;20260;-55
2021/07/24 01:48:30;;;;;;;;;;;24.30;57.80;;;;;;5133730;28;20427;-54
2021/07/24 01:53:45;;;;;;;;;;;24.30;57.80;;;;;;5132356;28;19923;-53
2021/07/24 01:56:13;;;;;;;;;;;24.30;57.90;;;;;;5131030;28;19923;-53
2021/07/24 01:58:40;;;;;;;;;;;24.30;57.90;;;;;;5130803;28;19923;-56
2021/07/24 02:01:07;;;;;;;;;;;24.30;57.80;;;;;;5132177;28;19924;-56
2021/07/24 02:03:37;;;;;;;;;;;24.20;57.80;;;;;;5132449;28;19988;-54
2021/07/24 02:06:04;;;;;;;;;;;24.30;57.90;;;;;;5131990;28;19923;-55
2021/07/24 02:08:33;;;;;;;;;;;24.20;57.80;;;;;;5131811;28;19927;-55
2021/07/24 02:11:00;;;;;;;;;;;24.20;57.80;;;;;;5130979;28;20259;-55
2021/07/24 02:13:27;;;;;;;;;;;24.20;57.80;;;;;;5133118;28;20485;-56
2021/07/24 02:15:56;;;;;;;;;;;24.20;57.90;;;;;;5132397;28;19968;-52
2021/07/24 02:18:23;;;;;;;;;;;24.20;57.90;;;;;;5133493;28;19924;-55
2021/07/24 02:20:51;;;;;;;;;;;24.20;57.90;;;;;;5131633;28;19974;-53
2021/07/24 02:23:19;;;;;;;;;;;24.20;58.00;;;;;;5131600;28;19928;-55
2021/07/24 02:25:46;;;;;;;;;;;24.20;57.90;;;;;;5131778;28;19992;-54
2021/07/24 02:28:13;;;;;;;;;;;24.20;57.90;;;;;;5131683;28;19928;-52
2021/07/24 02:30:40;;;;;;;;;;;24.20;57.90;;;;;;5132947;28;19953;-52
2021/07/24 02:33:07;;;;;;;;;;;24.20;57.80;;;;;;5131873;28;20353;-50
2021/07/24 02:35:34;;;;;;;;;;;24.20;57.80;;;;;;5131193;28;20412;-54
2021/07/24 02:38:02;;;;;;;;;;;24.20;57.80;;;;;;5131571;28;19958;-55
2021/07/24 02:40:29;;;;;;;;;;;24.20;57.80;;;;;;5134001;27;19924;-52
2021/07/24 02:42:56;;;;;;;;;;;24.20;57.90;;;;;;5135639;27;19930;-54
2021/07/24 02:45:23;;;;;;;;;;;24.20;57.90;;;;;;5134787;27;19923;-50
2021/07/24 02:47:50;;;;;;;;;;;24.20;57.80;;;;;;5134061;27;19929;-49
2021/07/24 02:50:17;;;;;;;;;;;24.10;57.70;;;;;;5135446;27;20279;-54
2021/07/24 02:52:44;;;;;;;;;;;24.10;57.80;;;;;;5134206;27;19924;-51
2021/07/24 02:55:11;;;;;;;;;;;24.10;57.80;;;;;;5136414;27;19924;-51
2021/07/24 02:57:39;;;;;;;;;;;24.10;57.70;;;;;;5134702;27;19927;-53
2021/07/24 03:00:06;;;;;;;;;;;24.10;57.70;;;;;;5135338;27;19949;-50
2021/07/24 03:02:33;;;;;;;;;;;24.10;57.80;;;;;;5135046;27;19976;-52
2021/07/24 03:05:00;;;;;;;;;;;24.10;57.80;;;;;;5136162;27;20014;-54
2021/07/24 03:07:27;;;;;;;;;;;24.10;57.80;;;;;;5134741;27;19923;-53
2021/07/24 03:09:54;;;;;;;;;;;24.10;57.80;;;;;;5127455;27;19931;-52
2021/07/24 03:12:21;;;;;;;;;;;24.10;57.80;;;;;;5118628;27;19923;-49
2021/07/24 03:14:48;;;;;;;;;;;24.10;57.80;;;;;;5124747;27;19955;-49
2021/07/24 03:17:15;;;;;;;;;;;24.10;57.80;;;;;;5117369;27;20428;-48
2021/07/24 03:19:43;;;;;;;;;;;24.10;57.80;;;;;;5133416;27;19969;-54
2021/07/24 03:22:10;;;;;;;;;;;24.10;57.80;;;;;;5134382;27;20363;-50
2021/07/24 03:24:37;;;;;;;;;;;24.10;57.80;;;;;;5136174;27;19961;-53
2021/07/24 03:27:04;;;;;;;;;;;24.10;57.80;;;;;;5135211;27;19976;-52
2021/07/24 03:29:31;;;;;;;;;;;24.10;57.80;;;;;;5116534;27;19927;-52
2021/07/24 03:31:58;;;;;;;;;;;24.10;57.70;;;;;;5118135;27;19923;-50
2021/07/24 03:34:25;;;;;;;;;;;24.10;57.80;;;;;;5134924;27;19923;-51
2021/07/24 03:36:52;;;;;;;;;;;24.10;57.80;;;;;;5120546;27;19978;-50
2021/07/24 03:39:19;;;;;;;;;;;24.10;57.80;;;;;;5135779;27;19927;-50
2021/07/24 03:41:46;;;;;;;;;;;24.10;57.80;;;;;;5134283;27;19927;-53
2021/07/24 03:44:13;;;;;;;;;;;24.10;57.70;;;;;;5134265;27;19924;-48
2021/07/24 03:46:40;;;;;;;;;;;24.10;57.80;;;;;;5133192;27;19963;-51
2021/07/24 03:49:07;;;;;;;;;;;24.10;57.80;;;;;;5132752;27;19929;-50
2021/07/24 03:51:34;;;;;;;;;;;24.10;57.70;;;;;;5131783;27;19968;-53
2021/07/24 03:54:01;;;;;;;;;;;24.10;57.70;;;;;;5112032;28;19924;-51
2021/07/24 03:56:28;;;;;;;;;;;24.10;57.70;;;;;;5112399;28;19996;-51
2021/07/24 03:58:55;;;;;;;;;;;24.10;57.70;;;;;;5113504;28;19927;-52
2021/07/24 04:01:25;;;;;;;;;;;24.10;57.70;;;;;;5114776;28;19973;-53
2021/07/24 04:03:52;;;;;;;;;;;24.10;57.70;;;;;;5113398;28;20007;-54
2021/07/24 04:06:21;;;;;;;;;;;24.10;57.70;;;;;;5114860;28;20011;-54
2021/07/24 04:08:52;;;;;;;;;;;24.10;57.60;;;;;;5113740;28;19923;-53
2021/07/24 04:11:20;;;;;;;;;;;24.10;57.70;;;;;;5113040;28;19932;-55
2021/07/24 04:13:47;;;;;;;;;;;24.10;57.70;;;;;;5114301;28;20007;-55
2021/07/24 04:16:15;;;;;;;;;;;24.10;57.60;;;;;;5114744;28;19947;-55
2021/07/24 04:18:42;;;;;;;;;;;24.10;57.60;;;;;;5111088;27;19924;-55
2021/07/24 04:21:09;;;;;;;;;;;24.10;57.60;;;;;;5098730;28;20040;-53
2021/07/24 04:23:36;;;;;;;;;;;24.10;57.60;;;;;;5114420;28;20299;-55
2021/07/24 04:26:03;;;;;;;;;;;24.10;57.50;;;;;;5112922;28;19924;-54
2021/07/24 04:28:30;;;;;;;;;;;24.10;57.50;;;;;;5113014;28;20375;-53
2021/07/24 04:30:57;;;;;;;;;;;24.20;57.50;;;;;;5112367;28;19977;-55
2021/07/24 04:33:24;;;;;;;;;;;24.20;57.50;;;;;;5114302;28;19923;-54
2021/07/24 04:35:51;;;;;;;;;;;24.20;57.40;;;;;;5105546;28;19953;-52
2021/07/24 04:38:18;;;;;;;;;;;24.30;57.50;;;;;;5112095;28;19923;-55
2021/07/24 04:40:45;;;;;;;;;;;24.30;57.40;;;;;;5112328;28;20406;-55
2021/07/24 04:43:16;;;;;;;;;;;24.30;57.30;;;;;;5112694;28;19923;-49
2021/07/24 04:45:44;;;;;;;;;;;24.40;57.30;;;;;;5114064;28;20337;-53
2021/07/24 04:48:11;;;;;;;;;;;24.40;57.20;;;;;;5112789;28;19923;-50
2021/07/24 04:50:40;;;;;;;;;;;24.40;57.10;;;;;;5112589;28;19923;-55
2021/07/24 04:53:08;;;;;;;;;;;24.40;57.10;;;;;;5113585;28;19924;-54
2021/07/24 04:55:36;;;;;;;;;;;24.40;57.00;;;;;;5128636;27;20287;-54
2021/07/24 04:58:08;;;;;;;;;;;24.50;57.00;;;;;;5131446;27;19923;-54
2021/07/24 05:00:36;;;;;;;;;;;24.50;56.90;;;;;;5133946;27;19923;-54
2021/07/24 05:03:03;;;;;;;;;;;24.50;56.90;;;;;;5133671;27;20391;-53
2021/07/24 05:05:31;;;;;;;;;;;24.50;56.90;;;;;;5133459;27;20443;-54
2021/07/24 05:07:58;;;;;;;;;;;24.60;56.90;;;;;;5125265;27;19924;-51
2021/07/24 05:10:25;;;;;;;;;;;24.60;56.80;;;;;;5122789;27;19972;-52
2021/07/24 05:12:52;;;;;;;;;;;24.60;56.80;;;;;;5132464;27;19924;-54
2021/07/24 05:15:19;;;;;;;;;;;24.60;56.80;;;;;;5131222;27;19968;-53
2021/07/24 05:17:46;;;;;;;;;;;24.60;56.80;;;;;;5132963;27;19935;-55
2021/07/24 05:20:13;;;;;;;;;;;24.60;56.80;;;;;;5131234;27;19924;-53
2021/07/24 05:22:40;;;;;;;;;;;24.60;57.00;;;;;;5132770;27;19978;-50
2021/07/24 05:25:07;;;;;;;;;;;24.60;56.90;;;;;;5114115;27;19946;-49
2021/07/24 05:27:34;;;;;;;;;;;24.60;56.80;;;;;;5133861;27;19972;-49
2021/07/24 05:30:01;;;;;;;;;;;24.60;56.80;;;;;;5133819;27;19946;-53
2021/07/24 05:32:28;;;;;;;;;;;24.70;56.90;;;;;;5133568;27;19923;-52
2021/07/24 05:34:55;;;;;;;;;;;24.70;56.80;;;;;;5132461;27;19976;-54
2021/07/24 05:37:22;;;;;;;;;;;24.70;56.80;;;;;;5131309;27;19924;-53
2021/07/24 05:39:49;;;;;;;;;;;24.70;56.80;;;;;;5133703;27;19980;-54
2021/07/24 05:42:16;;;;;;;;;;;24.70;56.70;;;;;;5117916;28;19924;-53
2021/07/24 05:44:43;;;;;;;;;;;24.80;56.70;;;;;;5131103;28;20287;-54
2021/07/24 05:47:10;;;;;;;;;;;24.80;56.60;;;;;;5132048;28;19927;-52
2021/07/24 05:49:37;;;;;;;;;;;24.80;56.70;;;;;;5132241;28;19924;-50
2021/07/24 05:52:11;;;;;;;;;;;24.80;56.60;;;;;;5132141;28;19931;-53
2021/07/24 05:54:39;;;;;;;;;;;24.90;56.60;;;;;;5133222;28;19923;-52
2021/07/24 05:57:06;;;;;;;;;;;24.90;56.50;;;;;;5133210;28;20432;-50
2021/07/24 05:59:34;;;;;;;;;;;24.90;56.40;;;;;;5114856;28;20371;-50
2021/07/24 06:02:04;;;;;;;;;;;25.00;56.40;;;;;;5131597;28;20383;-50
2021/07/24 06:04:34;;;;;;;;;;;25.00;56.30;;;;;;5130849;28;19923;-53
2021/07/24 06:07:01;;;;;;;;;;;25.00;56.30;;;;;;5131760;28;20014;-52
2021/07/24 06:09:28;;;;;;;;;;;25.00;56.30;;;;;;5130551;28;19924;-57
2021/07/24 06:11:55;;;;;;;;;;;25.00;56.30;;;;;;5131524;28;20440;-55
2021/07/24 06:14:23;;;;;;;;;;;25.10;56.40;;;;;;5115641;27;19923;-53
2021/07/24 06:16:53;;;;;;;;;;;25.00;56.40;;;;;;5134864;27;19923;-51
2021/07/24 06:19:20;;;;;;;;;;;25.00;56.40;;;;;;5134807;27;20317;-50
2021/07/24 06:21:47;;;;;;;;;;;25.10;56.40;;;;;;5133273;27;20440;-55
2021/07/24 06:24:15;;;;;;;;;;;25.10;56.30;;;;;;5137288;27;19923;-51
2021/07/24 06:26:41;;;;;;;;;;;25.10;56.20;;;;;;5136918;27;20367;-55
2021/07/24 06:29:09;;;;;;;;;;;25.10;56.20;;;;;;5136416;27;19923;-53
2021/07/24 06:31:36;;;;;;;;;;;25.20;56.20;;;;;;5136804;27;19927;-55
2021/07/24 06:34:04;;;;;;;;;;;25.20;56.20;;;;;;5137126;27;19923;-54
2021/07/24 06:36:31;;;;;;;;;;;25.20;56.10;;;;;;5134114;27;19980;-55
2021/07/24 06:38:58;;;;;;;;;;;25.20;56.10;;;;;;5136869;27;19923;-51
2021/07/24 06:41:30;;;;;;;;;;;25.30;56.30;;;;;;5136657;27;19976;-54
2021/07/24 06:43:57;;;;;;;;;;;25.30;56.10;;;;;;5136568;27;20011;-53
2021/07/24 06:46:24;;;;;;;;;;;25.30;56.10;;;;;;5136563;27;20382;-54
2021/07/24 06:48:51;;;;;;;;;;;25.30;56.10;;;;;;5134745;27;19930;-55
2021/07/24 06:51:18;;;;;;;;;;;25.30;56.00;;;;;;5135221;27;19924;-55
2021/07/24 06:53:45;;;;;;;;;;;25.40;56.10;;;;;;5134961;27;19927;-57
2021/07/24 06:56:12;;;;;;;;;;;25.40;56.00;;;;;;5136290;27;19923;-54
2021/07/24 06:58:39;;;;;;;;;;;25.40;55.90;;;;;;5136140;27;19923;-53
2021/07/24 07:01:07;;;;;;;;;;;25.40;55.80;;;;;;5136476;27;19923;-52
2021/07/24 07:03:35;;;;;;;;;;;25.50;55.80;;;;;;5126209;27;19924;-54
2021/07/24 07:06:06;;;;;;;;;;;25.50;55.60;;;;;;5127212;27;19923;-54
2021/07/24 07:08:33;;;;;;;;;;;25.50;55.60;;;;;;5117024;27;19930;-55
2021/07/24 07:11:04;;;;;;;;;;;25.50;55.40;;;;;;5136468;27;19942;-55
2021/07/24 07:13:31;;;;;;;;;;;25.50;55.40;;;;;;5133568;27;20382;-56
2021/07/24 07:16:02;;;;;;;;;;;25.60;55.40;;;;;;5133866;27;19954;-56
2021/07/24 07:18:29;;;;;;;;;;;25.60;55.40;;;;;;5133553;27;19942;-56
2021/07/24 07:20:56;;;;;;;;;;;25.60;55.50;;;;;;5136017;27;19930;-54
2021/07/24 07:23:23;;;;;;;;;;;25.60;55.40;;;;;;5135819;27;20366;-56
2021/07/24 07:25:51;;;;;;;;;;;25.60;55.30;;;;;;5135955;27;19952;-53
2021/07/24 07:28:17;;;;;;;;;;;25.60;55.40;;;;;;5133447;27;19928;-54
2021/07/24 07:30:44;;;;;;;;;;;25.60;55.30;;;;;;5136209;27;19927;-56
2021/07/24 07:33:11;;;;;;;;;;;25.70;55.40;;;;;;5134352;27;19971;-56
2021/07/24 07:35:38;;;;;;;;;;;25.70;55.20;;;;;;5120850;27;19923;-54
2021/07/24 07:38:06;;;;;;;;;;;25.70;55.20;;;;;;5135977;27;19924;-55
2021/07/24 07:40:38;;;;;;;;;;;25.70;55.20;;;;;;5136053;27;19923;-55
2021/07/24 07:43:06;;;;;;;;;;;25.70;55.20;;;;;;5135863;27;19951;-56
2021/07/24 07:45:33;;;;;;;;;;;25.70;55.10;;;;;;5134341;27;19955;-55
2021/07/24 07:48:00;;;;;;;;;;;25.70;55.20;;;;;;5135472;27;19932;-55
2021/07/24 07:50:27;;;;;;;;;;;25.80;55.20;;;;;;5135504;27;20325;-55
2021/07/24 07:52:54;;;;;;;;;;;25.80;55.20;;;;;;5135365;27;19968;-56
2021/07/24 07:55:21;;;;;;;;;;;25.80;55.10;;;;;;5134869;27;19924;-52
2021/07/24 07:57:48;;;;;;;;;;;25.80;55.10;;;;;;5133736;27;19924;-56
2021/07/24 08:00:15;;;;;;;;;;;25.80;55.10;;;;;;5124824;27;20333;-55
2021/07/24 08:02:42;;;;;;;;;;;25.80;55.10;;;;;;5126906;27;19923;-54
2021/07/24 08:05:10;;;;;;;;;;;25.80;55.10;;;;;;5127130;27;19923;-54
2021/07/24 08:07:37;;;;;;;;;;;25.80;55.20;;;;;;5124314;27;19925;-52
2021/07/24 08:10:04;;;;;;;;;;;25.80;55.30;;;;;;5126383;27;19924;-54
2021/07/24 08:12:31;;;;;;;;;;;25.90;55.40;;;;;;5126058;27;19924;-52
2021/07/24 08:14:58;;;;;;;;;;;25.90;55.40;;;;;;5122424;27;19972;-52
2021/07/24 08:17:25;;;;;;;;;;;25.90;55.40;;;;;;5134022;27;20279;-50
2021/07/24 08:19:53;;;;;;;;;;;26.00;55.50;;;;;;5133361;27;20011;-55
2021/07/24 08:22:20;;;;;;;;;;;26.00;56.00;;;;;;5133668;27;19924;-53
2021/07/24 08:24:47;;;;;;;;;;;26.00;55.40;;;;;;5134951;27;19931;-51
2021/07/24 08:27:13;;;;;;;;;;;26.00;55.40;;;;;;5116084;27;19923;-52
2021/07/24 08:29:40;;;;;;;;;;;26.00;55.50;;;;;;5134426;27;20394;-51
2021/07/24 08:32:08;;;;;;;;;;;26.00;55.50;;;;;;5134977;27;19939;-50
2021/07/24 08:34:36;;;;;;;;;;;26.10;55.70;;;;;;5133731;27;20439;-49
2021/07/24 08:37:03;;;;;;;;;;;26.10;55.70;;;;;;5116822;27;19949;-50
2021/07/24 08:39:30;;;;;;;;;;;26.10;55.70;;;;;;5134472;27;20493;-54
2021/07/24 08:41:57;;;;;;;;;;;26.10;55.80;;;;;;5100653;28;20390;-53
2021/07/24 08:44:24;;;;;;;;;;;26.10;55.70;;;;;;5132042;27;20386;-52
2021/07/24 08:46:52;;;;;;;;;;;26.10;55.70;;;;;;5133434;27;20333;-53
2021/07/24 08:49:19;;;;;;;;;;;26.10;55.60;;;;;;5134233;27;20398;-52
2021/07/24 08:51:48;;;;;;;;;;;26.10;55.50;;;;;;5132679;27;19968;-52
2021/07/24 08:54:15;;;;;;;;;;;26.20;55.50;;;;;;5121555;27;20606;-53
2021/07/24 08:56:46;;;;;;;;;;;26.20;55.50;;;;;;5117604;27;19930;-52
2021/07/24 08:59:14;;;;;;;;;;;26.20;55.50;;;;;;5125511;27;19927;-56
2021/07/24 09:01:42;;;;;;;;;;;26.20;55.60;;;;;;5133215;27;20332;-54
2021/07/24 09:04:09;;;;;;;;;;;26.20;55.60;;;;;;5134261;27;20018;-52
2021/07/24 09:06:37;;;;;;;;;;;26.20;55.40;;;;;;5132751;27;19923;-51
2021/07/24 09:09:04;;;;;;;;;;;26.20;55.40;;;;;;5132847;27;19951;-51
2021/07/24 09:11:31;;;;;;;;;;;26.20;55.20;;;;;;5133058;27;19927;-51
2021/07/24 09:13:59;;;;;;;;;;;26.20;55.10;;;;;;5132938;27;19984;-54
2021/07/24 09:16:29;;;;;;;;;;;26.30;55.10;;;;;;5133890;27;19930;-50
2021/07/24 09:18:58;;;;;;;;;;;26.20;54.90;;;;;;5132372;27;20415;-52
2021/07/24 09:21:25;;;;;;;;;;;26.20;54.70;;;;;;5133909;27;19923;-52
2021/07/24 09:23:52;;;;;;;;;;;26.20;54.70;;;;;;5132514;27;19924;-54
2021/07/24 09:26:30;;;;;;;;;;;26.30;54.80;;;;;;5131308;27;19977;-56
2021/07/24 09:29:10;;;;;;;;;;;26.30;55.10;;;;;;5133310;27;19959;-51
2021/07/24 09:31:38;;;;;;;;;;;26.30;55.10;;;;;;5132211;27;19931;-54
2021/07/24 09:34:06;;;;;;;;;;;26.30;55.10;;;;;;5132329;27;19935;-53
2021/07/24 09:36:34;;;;;;;;;;;26.30;55.10;;;;;;5124188;27;19927;-50
2021/07/24 09:39:08;;;;;;;;;;;26.40;55.20;;;;;;5132129;27;19927;-56
2021/07/24 09:41:35;;;;;;;;;;;26.40;55.00;;;;;;5114058;28;19946;-50
2021/07/24 09:44:03;;;;;;;;;;;26.40;55.10;;;;;;5131160;28;19923;-51
2021/07/24 09:46:30;;;;;;;;;;;26.40;55.00;;;;;;5133457;28;19971;-52
2021/07/24 09:49:08;;;;;;;;;;;26.40;54.90;;;;;;5134088;27;20014;-50
2021/07/24 09:51:36;;;;;;;;;;;26.40;54.90;;;;;;5136826;27;20332;-54
2021/07/24 09:54:04;;;;;;;;;;;26.40;54.90;;;;;;5119266;27;19924;-53
2021/07/24 09:56:44;;;;;;;;;;;26.40;54.70;;;;;;5137271;27;19976;-52
2021/07/24 09:59:24;;;;;;;;;;;26.40;54.80;;;;;;5135789;27;19981;-49
2021/07/24 10:01:55;;;;;;;;;;;26.40;54.80;;;;;;5136490;27;20016;-54
2021/07/24 10:04:26;;;;;;;;;;;26.50;54.80;;;;;;5136551;27;19923;-55
2021/07/24 10:06:54;;;;;;;;;;;26.40;54.70;;;;;;5136990;27;19923;-53
2021/07/24 10:09:25;;;;;;;;;;;26.50;54.70;;;;;;5134730;27;20328;-57
2021/07/24 10:11:53;;;;;;;;;;;26.50;54.80;;;;;;5137297;27;20382;-54
2021/07/24 10:14:20;;;;;;;;;;;26.50;54.80;;;;;;5136174;27;19923;-52
2021/07/24 10:16:49;;;;;;;;;;;26.50;54.70;;;;;;5135655;27;19923;-52
2021/07/24 10:19:17;;;;;;;;;;;26.50;54.60;;;;;;5135852;27;20243;-52
2021/07/24 10:21:44;;;;;;;;;;;26.50;54.50;;;;;;5135929;27;19933;-54
2021/07/24 10:24:11;;;;;;;;;;;26.60;54.70;;;;;;5125325;27;19996;-55
2021/07/24 10:26:39;;;;;;;;;;;26.60;54.70;;;;;;5131057;27;19931;-56
2021/07/24 10:29:07;;;;;;;;;;;26.60;54.80;;;;;;5134430;27;19923;-53
2021/07/24 10:31:40;;;;;;;;;;;26.60;54.80;;;;;;5136102;27;19999;-54
2021/07/24 10:34:07;;;;;;;;;;;26.60;54.80;;;;;;5135385;27;19924;-50
2021/07/24 10:36:34;;;;;;;;;;;26.60;54.60;;;;;;5136438;27;19976;-55
2021/07/24 10:39:06;;;;;;;;;;;26.70;54.60;;;;;;5135627;27;19977;-51
2021/07/24 10:41:32;;;;;;;;;;;26.70;54.70;;;;;;5135487;27;19976;-51
2021/07/24 10:44:07;;;;;;;;;;;26.70;54.70;;;;;;5135714;27;19924;-52
2021/07/24 10:46:40;;;;;;;;;;;26.70;54.80;;;;;;5133988;27;19924;-52
2021/07/24 10:49:08;;;;;;;;;;;26.70;54.70;;;;;;5134114;27;19966;-53
2021/07/24 10:51:54;;;;;;;;;;;26.70;54.70;;;;;;5136613;27;20428;-54
2021/07/24 10:54:22;;;;;;;;;;;26.70;54.70;;;;;;5136281;27;19972;-56
2021/07/24 10:56:50;;;;;;;;;;;26.70;54.70;;;;;;5135239;27;20290;-53
2021/07/24 10:59:18;;;;;;;;;;;26.70;54.70;;;;;;5134695;27;19959;-54
2021/07/24 11:01:48;;;;;;;;;;;26.70;54.80;;;;;;5134857;27;20410;-57
2021/07/24 11:04:34;;;;;;;;;;;26.70;54.90;;;;;;5133902;27;19923;-56
2021/07/24 11:07:13;;;;;;;;;;;26.70;54.90;;;;;;5116666;27;19935;-56
2021/07/24 11:09:41;;;;;;;;;;;26.70;54.90;;;;;;5134592;27;19984;-56
2021/07/24 11:12:09;;;;;;;;;;;26.70;54.80;;;;;;5136571;27;19923;-51
2021/07/24 11:14:36;;;;;;;;;;;26.70;55.00;;;;;;5134820;27;19931;-52
2021/07/24 11:17:03;;;;;;;;;;;26.70;55.40;;;;;;5135186;27;20259;-53
2021/07/24 11:19:35;;;;;;;;;;;26.70;55.40;;;;;;5116797;27;20093;-54
2021/07/24 11:22:12;;;;;;;;;;;26.80;55.50;;;;;;5134591;27;19931;-53
2021/07/24 11:24:40;;;;;;;;;;;26.80;55.30;;;;;;5135883;27;19928;-52
2021/07/24 11:27:07;;;;;;;;;;;26.70;55.30;;;;;;5134305;27;19949;-51
2021/07/24 11:29:34;;;;;;;;;;;26.80;55.30;;;;;;5117496;27;19950;-53
2021/07/24 11:32:02;;;;;;;;;;;26.70;55.20;;;;;;5116444;27;19953;-53
2021/07/24 11:34:31;;;;;;;;;;;26.80;55.30;;;;;;5136050;27;19948;-54
2021/07/24 11:36:58;;;;;;;;;;;26.80;55.40;;;;;;5120908;27;19930;-54
2021/07/24 11:39:26;;;;;;;;;;;26.70;55.60;;;;;;5134126;27;19931;-54
2021/07/24 11:41:53;;;;;;;;;;;26.70;55.40;;;;;;5135673;27;19924;-50
2021/07/24 11:44:27;;;;;;;;;;;26.80;55.50;;;;;;5135767;27;19927;-55
2021/07/24 11:47:04;;;;;;;;;;;26.70;55.60;;;;;;5134978;27;19988;-54
2021/07/24 11:49:31;;;;;;;;;;;26.70;55.50;;;;;;5134772;27;19973;-52
2021/07/24 11:51:58;;;;;;;;;;;26.80;55.50;;;;;;5134507;27;20277;-54
2021/07/24 11:54:35;;;;;;;;;;;26.80;55.60;;;;;;5132677;27;20375;-55
2021/07/24 11:57:05;;;;;;;;;;;26.80;55.50;;;;;;5135520;27;20294;-52
2021/07/24 11:59:32;;;;;;;;;;;26.80;55.50;;;;;;5132968;27;19928;-54
2021/07/24 12:02:00;;;;;;;;;;;26.70;55.60;;;;;;5135526;27;19927;-52
2021/07/24 12:04:28;;;;;;;;;;;26.80;55.70;;;;;;5135007;27;19924;-55
2021/07/24 12:06:56;;;;;;;;;;;26.80;55.90;;;;;;5135409;27;19923;-51
2021/07/24 12:09:23;;;;;;;;;;;26.80;56.00;;;;;;5135046;27;20383;-54
2021/07/24 12:11:54;;;;;;;;;;;26.80;56.00;;;;;;5123368;27;19928;-56
2021/07/24 12:14:22;;;;;;;;;;;26.80;56.00;;;;;;5126894;27;19927;-53
2021/07/24 12:17:06;;;;;;;;;;;26.80;55.90;;;;;;5135161;27;20012;-54
2021/07/24 12:19:43;;;;;;;;;;;26.80;56.00;;;;;;5132664;27;19931;-55
2021/07/24 12:22:11;;;;;;;;;;;26.90;56.00;;;;;;5133665;27;19930;-56
2021/07/24 12:24:38;;;;;;;;;;;26.90;55.90;;;;;;5133862;27;19923;-55
2021/07/24 12:27:07;;;;;;;;;;;26.80;55.80;;;;;;5134754;27;19924;-56
2021/07/24 12:29:46;;;;;;;;;;;26.90;55.80;;;;;;5116420;27;19955;-53
2021/07/24 12:32:13;;;;;;;;;;;26.80;55.60;;;;;;5132413;27;19923;-50
2021/07/24 12:34:42;;;;;;;;;;;26.90;55.60;;;;;;5133933;27;19963;-53
2021/07/24 12:37:09;;;;;;;;;;;26.90;55.60;;;;;;5127730;27;20271;-54
2021/07/24 12:39:39;;;;;;;;;;;26.90;55.60;;;;;;5133066;27;19972;-52
2021/07/24 12:42:07;;;;;;;;;;;26.90;55.60;;;;;;5133061;27;19924;-55
2021/07/24 12:44:53;;;;;;;;;;;26.90;55.40;;;;;;5133124;27;19924;-53
2021/07/24 12:47:20;;;;;;;;;;;26.90;55.40;;;;;;5133255;27;19930;-54
2021/07/24 12:49:48;;;;;;;;;;;26.90;55.50;;;;;;5131976;27;19923;-53
2021/07/24 12:52:21;;;;;;;;;;;26.90;55.40;;;;;;5131999;27;19927;-51
2021/07/24 12:54:59;;;;;;;;;;;26.90;55.30;;;;;;5131267;27;19976;-52
2021/07/24 12:57:26;;;;;;;;;;;27.00;55.30;;;;;;5132655;27;20397;-55
2021/07/24 12:59:53;;;;;;;;;;;27.00;55.10;;;;;;5133061;27;20287;-53
2021/07/24 13:02:23;;;;;;;;;;;27.10;55.10;;;;;;5129694;27;20209;-55
2021/07/24 13:04:52;;;;;;;;;;;27.10;55.00;;;;;;5117216;27;19966;-56
2021/07/24 13:07:21;;;;;;;;;;;27.10;54.80;;;;;;5115714;27;19923;-55
2021/07/24 13:09:49;;;;;;;;;;;27.20;54.90;;;;;;5118998;27;20290;-53
2021/07/24 13:12:19;;;;;;;;;;;27.30;54.60;;;;;;5133952;27;19930;-51
2021/07/24 13:14:46;;;;;;;;;;;27.30;54.60;;;;;;5132570;27;19924;-50
2021/07/24 13:17:13;;;;;;;;;;;27.30;54.40;;;;;;5115764;27;19931;-52
2021/07/24 13:19:40;;;;;;;;;;;27.40;54.30;;;;;;5132464;27;19930;-54
2021/07/24 13:22:08;;;;;;;;;;;27.40;54.20;;;;;;5134183;27;19935;-53
2021/07/24 13:24:35;;;;;;;;;;;27.40;54.30;;;;;;5132860;27;19923;-51
2021/07/24 13:29:49;;;;;;;;;;;27.50;54.30;;;;;;5133042;27;19931;-55
2021/07/24 13:32:16;;;;;;;;;;;27.50;54.30;;;;;;5132711;27;20010;-54
2021/07/24 13:34:44;;;;;;;;;;;27.40;54.30;;;;;;5133284;27;19930;-54
2021/07/24 13:37:14;;;;;;;;;;;27.50;54.30;;;;;;5131179;27;20014;-55
2021/07/24 13:39:41;;;;;;;;;;;27.40;54.30;;;;;;5132252;27;20310;-56
2021/07/24 13:42:08;;;;;;;;;;;27.50;54.30;;;;;;5133312;27;20032;-56
2021/07/24 13:44:35;;;;;;;;;;;27.50;54.40;;;;;;5131887;27;19923;-52
2021/07/24 13:47:04;;;;;;;;;;;27.50;54.20;;;;;;5133458;28;19923;-55
2021/07/24 13:49:34;;;;;;;;;;;27.50;54.80;;;;;;5131917;28;19949;-53
2021/07/24 13:52:02;;;;;;;;;;;27.50;54.20;;;;;;5133383;28;19931;-54
2021/07/24 13:54:32;;;;;;;;;;;27.50;54.20;;;;;;5133204;28;19937;-54
2021/07/24 13:57:00;;;;;;;;;;;27.50;54.20;;;;;;5122082;28;19927;-54
2021/07/24 13:59:27;;;;;;;;;;;27.50;54.20;;;;;;5125686;28;19927;-53
2021/07/24 14:01:54;;;;;;;;;;;27.50;54.20;;;;;;5125246;28;20431;-54
2021/07/24 14:04:21;;;;;;;;;;;27.50;54.20;;;;;;5123510;28;19938;-52
2021/07/24 14:06:48;;;;;;;;;;;27.50;54.20;;;;;;5115040;28;20351;-54
2021/07/24 14:09:15;;;;;;;;;;;27.40;54.30;;;;;;5133250;28;19972;-54
2021/07/24 14:11:44;;;;;;;;;;;27.40;54.30;;;;;;5114969;28;19934;-54
2021/07/24 14:14:12;;;;;;;;;;;27.40;54.30;;;;;;5132140;28;19927;-55
2021/07/24 14:16:40;;;;;;;;;;;27.40;54.50;;;;;;5131205;28;20077;-52
2021/07/24 14:19:07;;;;;;;;;;;27.30;54.40;;;;;;5130571;28;19927;-54
2021/07/24 14:21:35;;;;;;;;;;;27.30;54.50;;;;;;5130645;28;20447;-56
2021/07/24 14:24:02;;;;;;;;;;;27.30;54.50;;;;;;5130698;28;19923;-54
2021/07/24 14:26:30;;;;;;;;;;;27.30;54.60;;;;;;5113889;28;19983;-53
2021/07/24 14:28:57;;;;;;;;;;;27.30;54.60;;;;;;5132986;28;19923;-56